sensor_id;sensor_type;location;lat;lon;timestamp;P1;durP1;ratioP1;P2;durP2;ratioP2
48185;SDS011;33978;47.432;18.916;2022-12-07T00:01:30;25.23;;;13.68;;
48185;SDS011;33978;47.432;18.916;2022-12-07T00:04:00;20.42;;;13.10;;
48185;SDS011;33978;47.432;18.916;2022-12-07T00:06:36;21.40;;;13.10;;
48185;SDS011;33978;47.432;18.916;2022-12-07T00:09:09;23.27;;;12.93;;
48185;SDS011;33978;47.432;18.916;2022-12-07T00:11:38;19.95;;;12.48;;
48185;SDS011;33978;47.432;18.916;2022-12-07T00:14:06;19.45;;;12.40;;
48185;SDS011;33978;47.432;18.916;2022-12-07T00:16:35;18.75;;;11.93;;
48185;SDS011;33978;47.432;18.916;2022-12-07T00:19:03;17.98;;;11.70;;
48185;SDS011;33978;47.432;18.916;2022-12-07T00:21:32;16.25;;;10.82;;
48185;SDS011;33978;47.432;18.916;2022-12-07T00:24:00;17.60;;;12.00;;
48185;SDS011;33978;47.432;18.916;2022-12-07T00:26:29;17.15;;;11.63;;
48185;SDS011;33978;47.432;18.916;2022-12-07T00:29:00;17.58;;;10.88;;
48185;SDS011;33978;47.432;18.916;2022-12-07T00:31:33;18.10;;;11.30;;
48185;SDS011;33978;47.432;18.916;2022-12-07T00:34:06;16.87;;;10.95;;
48185;SDS011;33978;47.432;18.916;2022-12-07T00:36:34;15.80;;;10.63;;
48185;SDS011;33978;47.432;18.916;2022-12-07T00:39:02;17.42;;;11.18;;
48185;SDS011;33978;47.432;18.916;2022-12-07T00:41:29;29.37;;;17.00;;
48185;SDS011;33978;47.432;18.916;2022-12-07T00:43:57;30.33;;;18.70;;
48185;SDS011;33978;47.432;18.916;2022-12-07T00:46:25;8.50;;;6.62;;
48185;SDS011;33978;47.432;18.916;2022-12-07T00:48:53;26.33;;;16.08;;
48185;SDS011;33978;47.432;18.916;2022-12-07T00:51:21;19.62;;;12.45;;
48185;SDS011;33978;47.432;18.916;2022-12-07T00:53:49;19.25;;;12.88;;
48185;SDS011;33978;47.432;18.916;2022-12-07T00:56:18;19.00;;;12.35;;
48185;SDS011;33978;47.432;18.916;2022-12-07T00:58:54;20.62;;;13.50;;
48185;SDS011;33978;47.432;18.916;2022-12-07T01:01:23;17.83;;;11.82;;
48185;SDS011;33978;47.432;18.916;2022-12-07T01:03:52;17.75;;;11.45;;
48185;SDS011;33978;47.432;18.916;2022-12-07T01:06:20;19.35;;;12.25;;
48185;SDS011;33978;47.432;18.916;2022-12-07T01:08:49;18.85;;;12.90;;
48185;SDS011;33978;47.432;18.916;2022-12-07T01:11:18;20.30;;;13.30;;
48185;SDS011;33978;47.432;18.916;2022-12-07T01:13:46;17.58;;;11.88;;
48185;SDS011;33978;47.432;18.916;2022-12-07T01:16:16;20.08;;;13.02;;
48185;SDS011;33978;47.432;18.916;2022-12-07T01:18:45;19.02;;;12.27;;
48185;SDS011;33978;47.432;18.916;2022-12-07T01:21:15;19.33;;;13.07;;
48185;SDS011;33978;47.432;18.916;2022-12-07T01:23:50;25.65;;;15.85;;
48185;SDS011;33978;47.432;18.916;2022-12-07T01:26:19;20.65;;;12.93;;
48185;SDS011;33978;47.432;18.916;2022-12-07T01:28:48;26.87;;;16.05;;
48185;SDS011;33978;47.432;18.916;2022-12-07T01:31:23;27.65;;;17.25;;
48185;SDS011;33978;47.432;18.916;2022-12-07T01:33:56;28.48;;;17.05;;
48185;SDS011;33978;47.432;18.916;2022-12-07T01:36:28;25.65;;;15.85;;
48185;SDS011;33978;47.432;18.916;2022-12-07T01:38:58;26.33;;;15.45;;
48185;SDS011;33978;47.432;18.916;2022-12-07T01:41:32;22.80;;;14.50;;
48185;SDS011;33978;47.432;18.916;2022-12-07T01:44:17;21.33;;;14.75;;
48185;SDS011;33978;47.432;18.916;2022-12-07T01:47:13;0.70;;;0.70;;
48185;SDS011;33978;47.432;18.916;2022-12-07T01:49:46;21.33;;;13.95;;
48185;SDS011;33978;47.432;18.916;2022-12-07T01:54:53;23.80;;;14.87;;
48185;SDS011;33978;47.432;18.916;2022-12-07T01:57:23;21.23;;;13.98;;
48185;SDS011;33978;47.432;18.916;2022-12-07T01:59:51;22.48;;;13.90;;
48185;SDS011;33978;47.432;18.916;2022-12-07T02:02:38;4.95;;;3.40;;
48185;SDS011;33978;47.432;18.916;2022-12-07T02:05:09;19.48;;;12.80;;
48185;SDS011;33978;47.432;18.916;2022-12-07T02:07:36;20.40;;;12.45;;
48185;SDS011;33978;47.432;18.916;2022-12-07T02:12:47;25.02;;;15.73;;
48185;SDS011;33978;47.432;18.916;2022-12-07T02:15:17;23.30;;;15.00;;
48185;SDS011;33978;47.432;18.916;2022-12-07T02:28:29;22.73;;;13.65;;
48185;SDS011;33978;47.432;18.916;2022-12-07T02:30:58;22.05;;;14.85;;
48185;SDS011;33978;47.432;18.916;2022-12-07T02:33:35;26.30;;;15.10;;
48185;SDS011;33978;47.432;18.916;2022-12-07T02:41:25;22.48;;;13.73;;
48185;SDS011;33978;47.432;18.916;2022-12-07T02:43:56;24.52;;;14.23;;
48185;SDS011;33978;47.432;18.916;2022-12-07T02:46:28;21.27;;;13.57;;
48185;SDS011;33978;47.432;18.916;2022-12-07T02:48:58;20.73;;;13.00;;
48185;SDS011;33978;47.432;18.916;2022-12-07T02:51:32;21.48;;;13.23;;
48185;SDS011;33978;47.432;18.916;2022-12-07T02:54:00;21.05;;;13.05;;
48185;SDS011;33978;47.432;18.916;2022-12-07T02:56:37;20.27;;;11.80;;
48185;SDS011;33978;47.432;18.916;2022-12-07T03:10:38;19.30;;;12.02;;
48185;SDS011;33978;47.432;18.916;2022-12-07T03:13:33;18.80;;;11.90;;
48185;SDS011;33978;47.432;18.916;2022-12-07T03:18:25;19.50;;;12.02;;
48185;SDS011;33978;47.432;18.916;2022-12-07T03:20:57;17.02;;;11.18;;
48185;SDS011;33978;47.432;18.916;2022-12-07T03:23:26;16.20;;;10.82;;
48185;SDS011;33978;47.432;18.916;2022-12-07T03:25:55;16.45;;;10.80;;
48185;SDS011;33978;47.432;18.916;2022-12-07T03:28:29;18.75;;;11.25;;
48185;SDS011;33978;47.432;18.916;2022-12-07T03:31:03;21.85;;;13.48;;
48185;SDS011;33978;47.432;18.916;2022-12-07T03:33:41;23.15;;;13.38;;
48185;SDS011;33978;47.432;18.916;2022-12-07T03:36:21;21.92;;;12.10;;
48185;SDS011;33978;47.432;18.916;2022-12-07T03:39:04;40.58;;;18.30;;
48185;SDS011;33978;47.432;18.916;2022-12-07T03:41:41;33.60;;;16.73;;
48185;SDS011;33978;47.432;18.916;2022-12-07T03:44:12;21.92;;;13.05;;
48185;SDS011;33978;47.432;18.916;2022-12-07T03:52:15;20.23;;;12.95;;
48185;SDS011;33978;47.432;18.916;2022-12-07T03:57:24;16.42;;;10.30;;
48185;SDS011;33978;47.432;18.916;2022-12-07T03:59:53;14.63;;;10.40;;
48185;SDS011;33978;47.432;18.916;2022-12-07T04:02:22;12.90;;;9.07;;
48185;SDS011;33978;47.432;18.916;2022-12-07T04:04:51;14.32;;;9.60;;
48185;SDS011;33978;47.432;18.916;2022-12-07T04:07:19;16.25;;;11.35;;
48185;SDS011;33978;47.432;18.916;2022-12-07T04:09:46;14.27;;;9.27;;
48185;SDS011;33978;47.432;18.916;2022-12-07T04:12:14;15.38;;;9.27;;
48185;SDS011;33978;47.432;18.916;2022-12-07T04:14:42;14.87;;;9.65;;
48185;SDS011;33978;47.432;18.916;2022-12-07T04:17:09;15.48;;;9.13;;
48185;SDS011;33978;47.432;18.916;2022-12-07T04:19:37;15.30;;;9.77;;
48185;SDS011;33978;47.432;18.916;2022-12-07T04:22:04;15.75;;;9.30;;
48185;SDS011;33978;47.432;18.916;2022-12-07T04:24:32;13.38;;;8.60;;
48185;SDS011;33978;47.432;18.916;2022-12-07T04:27:00;13.32;;;8.93;;
48185;SDS011;33978;47.432;18.916;2022-12-07T04:29:27;16.83;;;10.63;;
48185;SDS011;33978;47.432;18.916;2022-12-07T04:31:55;14.95;;;10.20;;
48185;SDS011;33978;47.432;18.916;2022-12-07T04:34:22;15.57;;;10.57;;
48185;SDS011;33978;47.432;18.916;2022-12-07T04:36:50;15.40;;;10.98;;
48185;SDS011;33978;47.432;18.916;2022-12-07T04:39:19;16.60;;;11.63;;
48185;SDS011;33978;47.432;18.916;2022-12-07T04:41:49;16.52;;;10.93;;
48185;SDS011;33978;47.432;18.916;2022-12-07T04:44:16;18.30;;;10.57;;
48185;SDS011;33978;47.432;18.916;2022-12-07T04:46:44;19.42;;;13.35;;
48185;SDS011;33978;47.432;18.916;2022-12-07T04:49:12;21.05;;;12.48;;
48185;SDS011;33978;47.432;18.916;2022-12-07T04:51:41;22.73;;;14.48;;
48185;SDS011;33978;47.432;18.916;2022-12-07T04:54:09;21.15;;;12.48;;
48185;SDS011;33978;47.432;18.916;2022-12-07T04:56:37;18.92;;;13.82;;
48185;SDS011;33978;47.432;18.916;2022-12-07T04:59:05;21.27;;;13.50;;
48185;SDS011;33978;47.432;18.916;2022-12-07T05:01:33;17.80;;;12.88;;
48185;SDS011;33978;47.432;18.916;2022-12-07T05:04:01;19.77;;;13.50;;
48185;SDS011;33978;47.432;18.916;2022-12-07T05:06:29;20.00;;;13.00;;
48185;SDS011;33978;47.432;18.916;2022-12-07T05:08:56;19.05;;;13.10;;
48185;SDS011;33978;47.432;18.916;2022-12-07T05:11:24;17.27;;;12.23;;
48185;SDS011;33978;47.432;18.916;2022-12-07T05:14:09;19.23;;;12.32;;
48185;SDS011;33978;47.432;18.916;2022-12-07T05:16:37;17.50;;;12.27;;
48185;SDS011;33978;47.432;18.916;2022-12-07T05:19:05;16.92;;;10.55;;
48185;SDS011;33978;47.432;18.916;2022-12-07T05:21:33;16.67;;;11.43;;
48185;SDS011;33978;47.432;18.916;2022-12-07T05:24:01;16.23;;;11.00;;
48185;SDS011;33978;47.432;18.916;2022-12-07T05:26:30;16.60;;;11.27;;
48185;SDS011;33978;47.432;18.916;2022-12-07T05:28:58;16.70;;;10.88;;
48185;SDS011;33978;47.432;18.916;2022-12-07T05:31:26;17.48;;;11.32;;
48185;SDS011;33978;47.432;18.916;2022-12-07T05:33:54;16.85;;;11.18;;
48185;SDS011;33978;47.432;18.916;2022-12-07T05:36:21;17.77;;;11.65;;
48185;SDS011;33978;47.432;18.916;2022-12-07T05:38:49;16.70;;;11.10;;
48185;SDS011;33978;47.432;18.916;2022-12-07T05:41:17;17.42;;;11.20;;
48185;SDS011;33978;47.432;18.916;2022-12-07T05:44:21;14.50;;;11.05;;
48185;SDS011;33978;47.432;18.916;2022-12-07T05:46:48;17.70;;;11.02;;
48185;SDS011;33978;47.432;18.916;2022-12-07T05:49:16;17.23;;;11.12;;
48185;SDS011;33978;47.432;18.916;2022-12-07T05:51:43;15.88;;;11.40;;
48185;SDS011;33978;47.432;18.916;2022-12-07T05:54:11;17.55;;;11.75;;
48185;SDS011;33978;47.432;18.916;2022-12-07T05:56:38;18.55;;;12.57;;
48185;SDS011;33978;47.432;18.916;2022-12-07T05:59:07;14.45;;;10.27;;
48185;SDS011;33978;47.432;18.916;2022-12-07T06:01:57;16.10;;;11.02;;
48185;SDS011;33978;47.432;18.916;2022-12-07T06:04:27;15.88;;;10.50;;
48185;SDS011;33978;47.432;18.916;2022-12-07T06:06:56;16.12;;;10.95;;
48185;SDS011;33978;47.432;18.916;2022-12-07T06:09:24;17.90;;;12.43;;
48185;SDS011;33978;47.432;18.916;2022-12-07T06:11:53;18.60;;;11.93;;
48185;SDS011;33978;47.432;18.916;2022-12-07T06:14:40;18.35;;;12.20;;
48185;SDS011;33978;47.432;18.916;2022-12-07T06:17:08;16.05;;;11.50;;
48185;SDS011;33978;47.432;18.916;2022-12-07T06:19:36;17.00;;;11.70;;
48185;SDS011;33978;47.432;18.916;2022-12-07T06:22:03;17.90;;;11.20;;
48185;SDS011;33978;47.432;18.916;2022-12-07T06:24:32;27.45;;;16.98;;
48185;SDS011;33978;47.432;18.916;2022-12-07T06:27:00;28.05;;;16.98;;
48185;SDS011;33978;47.432;18.916;2022-12-07T06:29:27;24.50;;;16.60;;
48185;SDS011;33978;47.432;18.916;2022-12-07T06:31:55;25.95;;;17.40;;
48185;SDS011;33978;47.432;18.916;2022-12-07T06:34:23;24.70;;;15.57;;
48185;SDS011;33978;47.432;18.916;2022-12-07T06:36:51;25.92;;;16.75;;
48185;SDS011;33978;47.432;18.916;2022-12-07T06:39:19;26.25;;;16.70;;
48185;SDS011;33978;47.432;18.916;2022-12-07T06:41:51;27.90;;;18.35;;
48185;SDS011;33978;47.432;18.916;2022-12-07T06:44:19;31.77;;;20.08;;
48185;SDS011;33978;47.432;18.916;2022-12-07T06:46:47;30.83;;;19.45;;
48185;SDS011;33978;47.432;18.916;2022-12-07T06:49:15;31.20;;;20.08;;
48185;SDS011;33978;47.432;18.916;2022-12-07T06:51:43;31.52;;;20.85;;
48185;SDS011;33978;47.432;18.916;2022-12-07T06:54:11;34.08;;;20.48;;
48185;SDS011;33978;47.432;18.916;2022-12-07T06:56:39;29.10;;;19.12;;
48185;SDS011;33978;47.432;18.916;2022-12-07T06:59:07;30.00;;;18.15;;
48185;SDS011;33978;47.432;18.916;2022-12-07T07:01:35;28.83;;;18.92;;
48185;SDS011;33978;47.432;18.916;2022-12-07T07:04:03;26.50;;;18.42;;
48185;SDS011;33978;47.432;18.916;2022-12-07T07:06:30;26.67;;;17.20;;
48185;SDS011;33978;47.432;18.916;2022-12-07T07:08:58;27.55;;;18.25;;
48185;SDS011;33978;47.432;18.916;2022-12-07T07:11:25;30.90;;;19.87;;
48185;SDS011;33978;47.432;18.916;2022-12-07T07:13:53;28.15;;;19.17;;
48185;SDS011;33978;47.432;18.916;2022-12-07T07:16:24;29.67;;;19.17;;
48185;SDS011;33978;47.432;18.916;2022-12-07T07:18:51;35.75;;;22.87;;
48185;SDS011;33978;47.432;18.916;2022-12-07T07:21:19;33.20;;;23.58;;
48185;SDS011;33978;47.432;18.916;2022-12-07T07:23:46;36.47;;;23.65;;
48185;SDS011;33978;47.432;18.916;2022-12-07T07:26:13;33.53;;;22.80;;
48185;SDS011;33978;47.432;18.916;2022-12-07T07:28:49;32.33;;;21.52;;
48185;SDS011;33978;47.432;18.916;2022-12-07T07:31:16;27.33;;;18.42;;
48185;SDS011;33978;47.432;18.916;2022-12-07T07:33:45;25.95;;;17.65;;
48185;SDS011;33978;47.432;18.916;2022-12-07T07:36:13;28.80;;;18.25;;
48185;SDS011;33978;47.432;18.916;2022-12-07T07:38:41;24.20;;;15.48;;
48185;SDS011;33978;47.432;18.916;2022-12-07T07:41:08;22.75;;;15.70;;
48185;SDS011;33978;47.432;18.916;2022-12-07T07:43:36;20.62;;;14.90;;
48185;SDS011;33978;47.432;18.916;2022-12-07T07:46:03;22.77;;;15.65;;
48185;SDS011;33978;47.432;18.916;2022-12-07T07:48:31;21.87;;;14.10;;
48185;SDS011;33978;47.432;18.916;2022-12-07T07:50:59;21.48;;;13.60;;
48185;SDS011;33978;47.432;18.916;2022-12-07T07:53:27;23.90;;;15.13;;
48185;SDS011;33978;47.432;18.916;2022-12-07T07:55:55;25.67;;;15.45;;
48185;SDS011;33978;47.432;18.916;2022-12-07T07:58:22;24.50;;;16.42;;
48185;SDS011;33978;47.432;18.916;2022-12-07T08:00:50;45.55;;;29.33;;
48185;SDS011;33978;47.432;18.916;2022-12-07T08:03:17;43.58;;;27.85;;
48185;SDS011;33978;47.432;18.916;2022-12-07T08:05:46;49.70;;;31.73;;
48185;SDS011;33978;47.432;18.916;2022-12-07T08:08:13;53.28;;;33.67;;
48185;SDS011;33978;47.432;18.916;2022-12-07T08:10:41;42.05;;;28.98;;
48185;SDS011;33978;47.432;18.916;2022-12-07T08:13:08;34.28;;;21.98;;
48185;SDS011;33978;47.432;18.916;2022-12-07T08:15:39;26.98;;;17.62;;
48185;SDS011;33978;47.432;18.916;2022-12-07T08:18:09;23.58;;;16.60;;
48185;SDS011;33978;47.432;18.916;2022-12-07T08:20:36;24.95;;;16.02;;
48185;SDS011;33978;47.432;18.916;2022-12-07T08:23:05;24.20;;;16.15;;
48185;SDS011;33978;47.432;18.916;2022-12-07T08:25:33;27.10;;;16.65;;
48185;SDS011;33978;47.432;18.916;2022-12-07T08:28:01;33.55;;;23.48;;
48185;SDS011;33978;47.432;18.916;2022-12-07T08:30:29;23.52;;;16.50;;
48185;SDS011;33978;47.432;18.916;2022-12-07T08:32:57;18.27;;;11.95;;
48185;SDS011;33978;47.432;18.916;2022-12-07T08:35:24;21.75;;;12.30;;
48185;SDS011;33978;47.432;18.916;2022-12-07T08:37:53;20.08;;;13.73;;
48185;SDS011;33978;47.432;18.916;2022-12-07T08:40:20;17.37;;;12.50;;
48185;SDS011;33978;47.432;18.916;2022-12-07T08:42:48;15.65;;;11.73;;
48185;SDS011;33978;47.432;18.916;2022-12-07T08:45:17;20.20;;;14.68;;
48185;SDS011;33978;47.432;18.916;2022-12-07T08:53:16;17.45;;;11.70;;
48185;SDS011;33978;47.432;18.916;2022-12-07T08:55:44;16.50;;;12.35;;
48185;SDS011;33978;47.432;18.916;2022-12-07T08:58:13;20.00;;;12.65;;
48185;SDS011;33978;47.432;18.916;2022-12-07T09:00:41;19.33;;;12.13;;
48185;SDS011;33978;47.432;18.916;2022-12-07T09:03:08;19.48;;;12.35;;
48185;SDS011;33978;47.432;18.916;2022-12-07T09:05:36;23.12;;;14.55;;
48185;SDS011;33978;47.432;18.916;2022-12-07T09:08:03;20.98;;;15.00;;
48185;SDS011;33978;47.432;18.916;2022-12-07T09:10:31;20.15;;;13.55;;
48185;SDS011;33978;47.432;18.916;2022-12-07T09:12:58;19.37;;;13.18;;
48185;SDS011;33978;47.432;18.916;2022-12-07T09:15:28;17.60;;;12.25;;
48185;SDS011;33978;47.432;18.916;2022-12-07T09:17:56;22.55;;;15.25;;
48185;SDS011;33978;47.432;18.916;2022-12-07T09:20:24;23.05;;;14.02;;
48185;SDS011;33978;47.432;18.916;2022-12-07T09:22:54;20.75;;;14.18;;
48185;SDS011;33978;47.432;18.916;2022-12-07T09:25:22;22.23;;;13.70;;
48185;SDS011;33978;47.432;18.916;2022-12-07T09:27:55;18.85;;;13.00;;
48185;SDS011;33978;47.432;18.916;2022-12-07T09:30:24;25.30;;;16.13;;
48185;SDS011;33978;47.432;18.916;2022-12-07T09:32:53;20.40;;;13.65;;
48185;SDS011;33978;47.432;18.916;2022-12-07T09:35:21;18.75;;;11.90;;
48185;SDS011;33978;47.432;18.916;2022-12-07T09:37:48;21.75;;;12.60;;
48185;SDS011;33978;47.432;18.916;2022-12-07T09:40:16;19.27;;;11.63;;
48185;SDS011;33978;47.432;18.916;2022-12-07T09:42:47;15.95;;;11.35;;
48185;SDS011;33978;47.432;18.916;2022-12-07T09:45:17;16.52;;;11.90;;
48185;SDS011;33978;47.432;18.916;2022-12-07T09:47:48;16.83;;;10.82;;
48185;SDS011;33978;47.432;18.916;2022-12-07T09:50:19;15.50;;;10.60;;
48185;SDS011;33978;47.432;18.916;2022-12-07T09:52:48;16.75;;;11.30;;
48185;SDS011;33978;47.432;18.916;2022-12-07T09:55:22;17.45;;;10.48;;
48185;SDS011;33978;47.432;18.916;2022-12-07T09:57:52;15.48;;;10.13;;
48185;SDS011;33978;47.432;18.916;2022-12-07T10:00:21;15.20;;;10.18;;
48185;SDS011;33978;47.432;18.916;2022-12-07T10:05:38;14.38;;;9.40;;
48185;SDS011;33978;47.432;18.916;2022-12-07T10:08:12;15.23;;;10.20;;
48185;SDS011;33978;47.432;18.916;2022-12-07T10:10:40;12.43;;;9.63;;
48185;SDS011;33978;47.432;18.916;2022-12-07T10:13:09;15.40;;;10.02;;
48185;SDS011;33978;47.432;18.916;2022-12-07T10:15:47;14.73;;;10.55;;
48185;SDS011;33978;47.432;18.916;2022-12-07T10:18:34;14.52;;;9.88;;
48185;SDS011;33978;47.432;18.916;2022-12-07T10:23:42;15.40;;;10.77;;
48185;SDS011;33978;47.432;18.916;2022-12-07T10:26:20;13.65;;;9.32;;
48185;SDS011;33978;47.432;18.916;2022-12-07T10:28:54;14.57;;;10.13;;
48185;SDS011;33978;47.432;18.916;2022-12-07T10:31:23;15.85;;;10.75;;
48185;SDS011;33978;47.432;18.916;2022-12-07T10:33:58;12.80;;;9.15;;
48185;SDS011;33978;47.432;18.916;2022-12-07T10:36:29;13.13;;;9.70;;
48185;SDS011;33978;47.432;18.916;2022-12-07T10:39:11;14.57;;;9.35;;
48185;SDS011;33978;47.432;18.916;2022-12-07T10:41:57;14.43;;;9.45;;
48185;SDS011;33978;47.432;18.916;2022-12-07T10:44:30;14.20;;;9.48;;
48185;SDS011;33978;47.432;18.916;2022-12-07T10:52:32;12.82;;;8.70;;
48185;SDS011;33978;47.432;18.916;2022-12-07T10:55:17;15.10;;;10.27;;
48185;SDS011;33978;47.432;18.916;2022-12-07T11:00:46;14.10;;;10.00;;
48185;SDS011;33978;47.432;18.916;2022-12-07T11:03:24;12.23;;;8.98;;
48185;SDS011;33978;47.432;18.916;2022-12-07T11:25:55;14.52;;;9.52;;
48185;SDS011;33978;47.432;18.916;2022-12-07T11:38:55;13.68;;;9.10;;
48185;SDS011;33978;47.432;18.916;2022-12-07T11:41:28;13.13;;;8.52;;
48185;SDS011;33978;47.432;18.916;2022-12-07T11:44:06;14.05;;;9.05;;
48185;SDS011;33978;47.432;18.916;2022-12-07T11:46:49;12.55;;;8.45;;
48185;SDS011;33978;47.432;18.916;2022-12-07T11:49:20;11.77;;;7.65;;
48185;SDS011;33978;47.432;18.916;2022-12-07T11:51:56;11.40;;;7.45;;
48185;SDS011;33978;47.432;18.916;2022-12-07T11:54:30;10.05;;;6.78;;
48185;SDS011;33978;47.432;18.916;2022-12-07T11:57:02;12.82;;;7.35;;
48185;SDS011;33978;47.432;18.916;2022-12-07T11:59:33;13.35;;;8.38;;
48185;SDS011;33978;47.432;18.916;2022-12-07T12:02:12;10.93;;;7.15;;
48185;SDS011;33978;47.432;18.916;2022-12-07T12:04:50;11.73;;;8.15;;
48185;SDS011;33978;47.432;18.916;2022-12-07T12:07:42;12.13;;;7.80;;
48185;SDS011;33978;47.432;18.916;2022-12-07T12:10:37;11.93;;;7.62;;
48185;SDS011;33978;47.432;18.916;2022-12-07T12:16:22;10.05;;;6.85;;
48185;SDS011;33978;47.432;18.916;2022-12-07T12:22:21;10.13;;;7.15;;
48185;SDS011;33978;47.432;18.916;2022-12-07T12:24:49;9.35;;;6.62;;
48185;SDS011;33978;47.432;18.916;2022-12-07T12:27:32;10.60;;;7.22;;
48185;SDS011;33978;47.432;18.916;2022-12-07T12:30:03;9.60;;;6.15;;
48185;SDS011;33978;47.432;18.916;2022-12-07T12:37:51;9.60;;;6.05;;
48185;SDS011;33978;47.432;18.916;2022-12-07T12:42:48;9.27;;;6.78;;
48185;SDS011;33978;47.432;18.916;2022-12-07T12:45:23;9.95;;;7.12;;
48185;SDS011;33978;47.432;18.916;2022-12-07T12:48:04;10.52;;;6.90;;
48185;SDS011;33978;47.432;18.916;2022-12-07T12:51:35;9.90;;;6.65;;
48185;SDS011;33978;47.432;18.916;2022-12-07T12:54:03;10.65;;;6.87;;
48185;SDS011;33978;47.432;18.916;2022-12-07T12:56:38;12.25;;;7.22;;
48185;SDS011;33978;47.432;18.916;2022-12-07T13:04:53;9.57;;;6.12;;
48185;SDS011;33978;47.432;18.916;2022-12-07T13:15:39;7.45;;;4.68;;
48185;SDS011;33978;47.432;18.916;2022-12-07T13:23:33;9.30;;;5.95;;
48185;SDS011;33978;47.432;18.916;2022-12-07T13:26:22;7.37;;;5.03;;
48185;SDS011;33978;47.432;18.916;2022-12-07T13:28:52;7.07;;;4.50;;
48185;SDS011;33978;47.432;18.916;2022-12-07T13:31:43;8.43;;;4.90;;
48185;SDS011;33978;47.432;18.916;2022-12-07T13:37:00;7.95;;;4.95;;
48185;SDS011;33978;47.432;18.916;2022-12-07T13:39:33;10.55;;;6.60;;
48185;SDS011;33978;47.432;18.916;2022-12-07T13:42:07;11.63;;;6.68;;
48185;SDS011;33978;47.432;18.916;2022-12-07T13:44:41;9.45;;;5.82;;
48185;SDS011;33978;47.432;18.916;2022-12-07T13:47:43;11.48;;;7.07;;
48185;SDS011;33978;47.432;18.916;2022-12-07T13:50:27;9.95;;;6.40;;
48185;SDS011;33978;47.432;18.916;2022-12-07T13:52:57;11.05;;;6.12;;
48185;SDS011;33978;47.432;18.916;2022-12-07T13:55:26;8.95;;;6.12;;
48185;SDS011;33978;47.432;18.916;2022-12-07T13:57:54;9.27;;;5.97;;
48185;SDS011;33978;47.432;18.916;2022-12-07T14:00:23;11.00;;;6.37;;
48185;SDS011;33978;47.432;18.916;2022-12-07T14:02:57;9.73;;;6.40;;
48185;SDS011;33978;47.432;18.916;2022-12-07T14:05:34;10.80;;;7.00;;
48185;SDS011;33978;47.432;18.916;2022-12-07T14:08:03;12.85;;;7.87;;
48185;SDS011;33978;47.432;18.916;2022-12-07T14:13:02;12.75;;;8.13;;
48185;SDS011;33978;47.432;18.916;2022-12-07T14:15:45;11.82;;;7.60;;
48185;SDS011;33978;47.432;18.916;2022-12-07T14:18:27;12.85;;;8.15;;
48185;SDS011;33978;47.432;18.916;2022-12-07T14:21:05;12.85;;;8.45;;
48185;SDS011;33978;47.432;18.916;2022-12-07T14:23:45;16.25;;;10.05;;
48185;SDS011;33978;47.432;18.916;2022-12-07T14:26:14;13.38;;;8.65;;
48185;SDS011;33978;47.432;18.916;2022-12-07T14:28:43;11.48;;;7.50;;
48185;SDS011;33978;47.432;18.916;2022-12-07T14:31:12;10.27;;;7.30;;
48185;SDS011;33978;47.432;18.916;2022-12-07T14:33:52;11.23;;;7.28;;
48185;SDS011;33978;47.432;18.916;2022-12-07T14:36:20;12.00;;;7.75;;
48185;SDS011;33978;47.432;18.916;2022-12-07T14:38:47;12.50;;;8.88;;
48185;SDS011;33978;47.432;18.916;2022-12-07T14:41:15;14.98;;;8.75;;
48185;SDS011;33978;47.432;18.916;2022-12-07T14:44:08;11.88;;;8.15;;
48185;SDS011;33978;47.432;18.916;2022-12-07T14:46:58;17.92;;;10.10;;
48185;SDS011;33978;47.432;18.916;2022-12-07T14:49:45;18.30;;;10.48;;
48185;SDS011;33978;47.432;18.916;2022-12-07T14:52:15;13.95;;;8.95;;
48185;SDS011;33978;47.432;18.916;2022-12-07T14:55:04;15.00;;;9.70;;
48185;SDS011;33978;47.432;18.916;2022-12-07T14:57:33;13.30;;;8.57;;
48185;SDS011;33978;47.432;18.916;2022-12-07T15:00:02;12.63;;;8.80;;
48185;SDS011;33978;47.432;18.916;2022-12-07T15:02:29;13.43;;;8.35;;
48185;SDS011;33978;47.432;18.916;2022-12-07T15:04:57;13.80;;;8.60;;
48185;SDS011;33978;47.432;18.916;2022-12-07T15:07:24;14.95;;;8.88;;
48185;SDS011;33978;47.432;18.916;2022-12-07T15:09:53;16.50;;;10.25;;
48185;SDS011;33978;47.432;18.916;2022-12-07T15:12:22;17.62;;;11.48;;
48185;SDS011;33978;47.432;18.916;2022-12-07T15:14:50;15.65;;;10.68;;
48185;SDS011;33978;47.432;18.916;2022-12-07T15:17:17;16.05;;;9.75;;
48185;SDS011;33978;47.432;18.916;2022-12-07T15:19:57;13.55;;;8.77;;
48185;SDS011;33978;47.432;18.916;2022-12-07T15:22:25;13.48;;;8.77;;
48185;SDS011;33978;47.432;18.916;2022-12-07T15:24:52;14.70;;;9.23;;
48185;SDS011;33978;47.432;18.916;2022-12-07T15:27:20;12.95;;;8.85;;
48185;SDS011;33978;47.432;18.916;2022-12-07T15:29:47;15.55;;;10.27;;
48185;SDS011;33978;47.432;18.916;2022-12-07T15:32:15;16.20;;;9.88;;
48185;SDS011;33978;47.432;18.916;2022-12-07T15:34:42;16.12;;;10.15;;
48185;SDS011;33978;47.432;18.916;2022-12-07T15:37:10;19.00;;;10.35;;
48185;SDS011;33978;47.432;18.916;2022-12-07T15:39:37;14.98;;;9.52;;
48185;SDS011;33978;47.432;18.916;2022-12-07T15:42:05;18.05;;;12.57;;
48185;SDS011;33978;47.432;18.916;2022-12-07T15:44:32;18.85;;;12.23;;
48185;SDS011;33978;47.432;18.916;2022-12-07T15:47:19;21.65;;;13.10;;
48185;SDS011;33978;47.432;18.916;2022-12-07T15:49:46;18.55;;;12.88;;
48185;SDS011;33978;47.432;18.916;2022-12-07T15:52:14;22.17;;;13.85;;
48185;SDS011;33978;47.432;18.916;2022-12-07T15:54:43;29.92;;;16.17;;
48185;SDS011;33978;47.432;18.916;2022-12-07T15:57:10;26.90;;;15.95;;
48185;SDS011;33978;47.432;18.916;2022-12-07T15:59:37;21.50;;;13.13;;
48185;SDS011;33978;47.432;18.916;2022-12-07T16:02:05;24.98;;;13.07;;
48185;SDS011;33978;47.432;18.916;2022-12-07T16:04:33;25.08;;;15.43;;
48185;SDS011;33978;47.432;18.916;2022-12-07T16:07:00;30.42;;;18.25;;
48185;SDS011;33978;47.432;18.916;2022-12-07T16:09:28;27.73;;;16.30;;
48185;SDS011;33978;47.432;18.916;2022-12-07T16:11:55;26.20;;;14.75;;
48185;SDS011;33978;47.432;18.916;2022-12-07T16:14:23;21.77;;;14.15;;
48185;SDS011;33978;47.432;18.916;2022-12-07T16:16:50;22.52;;;14.65;;
48185;SDS011;33978;47.432;18.916;2022-12-07T16:19:18;23.08;;;14.57;;
48185;SDS011;33978;47.432;18.916;2022-12-07T16:21:45;24.87;;;15.25;;
48185;SDS011;33978;47.432;18.916;2022-12-07T16:24:13;27.33;;;17.25;;
48185;SDS011;33978;47.432;18.916;2022-12-07T16:26:42;24.92;;;15.25;;
48185;SDS011;33978;47.432;18.916;2022-12-07T16:29:16;24.12;;;16.30;;
48185;SDS011;33978;47.432;18.916;2022-12-07T16:31:46;24.98;;;16.73;;
48185;SDS011;33978;47.432;18.916;2022-12-07T16:34:14;25.17;;;17.15;;
48185;SDS011;33978;47.432;18.916;2022-12-07T16:36:42;26.08;;;17.42;;
48185;SDS011;33978;47.432;18.916;2022-12-07T16:39:29;26.12;;;16.50;;
48185;SDS011;33978;47.432;18.916;2022-12-07T16:41:57;23.35;;;15.68;;
48185;SDS011;33978;47.432;18.916;2022-12-07T16:44:25;23.55;;;15.90;;
48185;SDS011;33978;47.432;18.916;2022-12-07T16:46:52;28.33;;;18.55;;
48185;SDS011;33978;47.432;18.916;2022-12-07T16:49:20;36.63;;;23.08;;